createdAt,value
2019-04-30T00:00:30.462Z,99.90
2019-04-30T00:03:06.655Z,99.90
2019-04-30T00:05:35.635Z,99.90
2019-04-30T00:08:05.876Z,99.90
2019-04-30T00:10:41.339Z,99.90
2019-04-30T00:13:10.416Z,99.90
2019-04-30T00:15:38.676Z,99.90
2019-04-30T00:18:08.002Z,99.90
2019-04-30T00:20:38.707Z,99.90
2019-04-30T00:23:08.098Z,99.90
2019-04-30T00:25:37.883Z,99.90
2019-04-30T00:28:08.795Z,99.90
2019-04-30T00:30:39.378Z,99.90
2019-04-30T00:33:09.186Z,99.90
2019-04-30T00:35:38.497Z,99.90
2019-04-30T00:38:07.799Z,99.90
2019-04-30T00:40:37.192Z,99.90
2019-04-30T00:43:08.993Z,99.90
2019-04-30T00:45:39.887Z,99.90
2019-04-30T00:48:08.575Z,99.90
2019-04-30T00:50:37.923Z,99.90
2019-04-30T00:53:12.529Z,99.90
2019-04-30T00:55:44.423Z,99.90
2019-04-30T00:58:09.145Z,99.90
2019-04-30T01:00:47.911Z,99.90
2019-04-30T01:03:21.806Z,99.90
2019-04-30T01:05:51.182Z,99.90
2019-04-30T01:08:21.068Z,99.90
2019-04-30T01:10:51.627Z,99.90
2019-04-30T01:13:20.957Z,99.90
2019-04-30T01:15:52.463Z,99.90
2019-04-30T01:18:23.622Z,99.90
2019-04-30T01:20:52.357Z,99.90
2019-04-30T01:23:22.375Z,99.90
2019-04-30T01:25:52.081Z,99.90
2019-04-30T01:28:24.211Z,99.90
2019-04-30T01:30:53.834Z,99.90
2019-04-30T01:33:23.405Z,99.90
2019-04-30T01:35:52.781Z,99.90
2019-04-30T01:38:22.189Z,99.90
2019-04-30T01:40:51.500Z,99.90
2019-04-30T01:43:30.471Z,99.90
2019-04-30T01:45:51.975Z,99.90
2019-04-30T01:48:21.251Z,99.90
2019-04-30T01:50:50.637Z,99.90
2019-04-30T01:53:20.023Z,99.90
2019-04-30T01:56:03.840Z,99.90
2019-04-30T01:58:52.095Z,99.90
2019-04-30T02:01:42.361Z,99.90
2019-04-30T02:04:11.681Z,99.90
2019-04-30T02:06:41.193Z,99.90
2019-04-30T02:09:10.493Z,99.90
2019-04-30T02:11:39.910Z,99.90
2019-04-30T02:14:09.379Z,99.90
2019-04-30T02:16:39.582Z,99.90
2019-04-30T02:19:09.224Z,99.90
2019-04-30T02:21:38.637Z,99.90
2019-04-30T02:24:08.928Z,99.90
2019-04-30T02:26:39.058Z,99.90
2019-04-30T02:29:09.162Z,99.90
2019-04-30T02:31:40.792Z,99.90
2019-04-30T02:34:21.952Z,99.90
2019-04-30T02:36:56.375Z,99.90
2019-04-30T02:39:25.760Z,99.90
2019-04-30T02:41:55.735Z,99.90
2019-04-30T02:44:25.842Z,99.90
2019-04-30T02:47:00.296Z,99.90
2019-04-30T02:49:30.573Z,99.90
2019-04-30T02:52:02.502Z,99.90
2019-04-30T02:54:33.194Z,99.90
2019-04-30T02:57:15.175Z,99.90
2019-04-30T03:00:02.391Z,99.90
2019-04-30T03:02:32.682Z,99.90
2019-04-30T03:05:02.196Z,99.90
2019-04-30T03:07:31.588Z,99.90
2019-04-30T03:10:00.949Z,99.90
2019-04-30T03:12:33.605Z,99.90
2019-04-30T03:15:01.362Z,99.90
2019-04-30T03:17:50.573Z,99.90
2019-04-30T03:20:42.009Z,99.90
2019-04-30T03:23:11.450Z,99.90
2019-04-30T03:25:40.843Z,99.90
2019-04-30T03:28:10.218Z,99.90
2019-04-30T03:30:42.048Z,99.90
2019-04-30T03:33:12.640Z,99.90
2019-04-30T03:35:47.731Z,99.90
2019-04-30T03:38:12.675Z,99.90
2019-04-30T03:40:42.034Z,99.90
2019-04-30T03:43:11.412Z,99.90
2019-04-30T03:45:40.801Z,99.90
2019-04-30T03:48:10.433Z,99.90
2019-04-30T03:50:50.233Z,99.90
2019-04-30T03:53:11.966Z,99.90
2019-04-30T03:55:41.422Z,99.90
2019-04-30T03:58:10.734Z,99.90
2019-04-30T04:00:51.228Z,99.90
2019-04-30T04:03:20.673Z,99.90
2019-04-30T04:06:09.400Z,99.90
2019-04-30T04:08:49.020Z,99.90
2019-04-30T04:11:26.418Z,99.90
2019-04-30T04:13:55.740Z,99.90
2019-04-30T04:16:25.140Z,99.90
2019-04-30T04:18:54.440Z,99.90
2019-04-30T04:21:23.904Z,99.90
2019-04-30T04:23:53.209Z,99.90
2019-04-30T04:26:22.576Z,99.90
2019-04-30T04:28:51.994Z,99.90
2019-04-30T04:31:21.378Z,99.90
2019-04-30T04:33:52.664Z,99.90
2019-04-30T04:36:21.666Z,99.90
2019-04-30T04:38:51.031Z,99.90
2019-04-30T04:41:20.340Z,99.90
2019-04-30T04:43:50.565Z,99.90
2019-04-30T04:46:20.515Z,99.90
2019-04-30T04:48:50.101Z,99.90
2019-04-30T04:51:33.256Z,99.90
2019-04-30T04:53:50.592Z,99.90
2019-04-30T04:56:19.983Z,99.90
2019-04-30T04:58:50.206Z,99.90
2019-04-30T05:01:22.750Z,99.90
2019-04-30T05:03:52.235Z,99.90
2019-04-30T05:06:22.296Z,99.90
2019-04-30T05:08:51.919Z,99.90
2019-04-30T05:11:21.355Z,99.90
2019-04-30T05:13:50.793Z,99.90
2019-04-30T05:16:20.225Z,99.90
2019-04-30T05:18:51.841Z,99.90
2019-04-30T05:21:21.145Z,99.90
2019-04-30T05:23:50.569Z,99.90
2019-04-30T05:26:19.932Z,99.90
2019-04-30T05:28:52.754Z,99.90
2019-04-30T05:31:21.064Z,99.90
2019-04-30T05:33:50.608Z,99.90
2019-04-30T05:36:20.198Z,99.90
2019-04-30T05:38:49.614Z,99.90
2019-04-30T05:41:19.295Z,99.90
2019-04-30T05:43:49.000Z,99.90
2019-04-30T05:46:19.628Z,99.90
2019-04-30T05:48:49.602Z,99.90
2019-04-30T05:51:21.168Z,99.90
2019-04-30T05:53:50.108Z,99.90
2019-04-30T05:56:19.474Z,99.90
2019-04-30T05:58:49.517Z,99.90
2019-04-30T06:01:19.639Z,99.90
2019-04-30T06:03:49.419Z,99.90
2019-04-30T06:06:19.438Z,99.90
2019-04-30T06:09:06.502Z,99.90
2019-04-30T06:11:49.181Z,99.90
2019-04-30T06:14:46.625Z,99.90
2019-04-30T06:17:17.104Z,99.90
2019-04-30T06:19:46.474Z,99.90
2019-04-30T06:22:15.868Z,99.90
2019-04-30T06:24:45.166Z,99.90
2019-04-30T06:27:14.672Z,99.90
2019-04-30T06:29:44.230Z,99.90
2019-04-30T06:32:13.650Z,99.90
2019-04-30T06:34:44.078Z,99.90
2019-04-30T06:37:13.512Z,99.90
2019-04-30T06:39:42.975Z,99.90
2019-04-30T06:42:13.097Z,99.90
2019-04-30T06:44:44.336Z,99.90
2019-04-30T06:47:14.453Z,99.90
2019-04-30T06:49:44.115Z,99.90
2019-04-30T06:52:20.613Z,99.60
2019-04-30T06:54:44.568Z,98.50
2019-04-30T06:57:13.938Z,97.40
2019-04-30T06:59:43.275Z,96.50
2019-04-30T07:02:12.655Z,95.00
2019-04-30T07:04:42.010Z,93.50
2019-04-30T07:07:14.347Z,91.80
2019-04-30T07:10:20.527Z,90.50
2019-04-30T07:12:54.289Z,86.10
2019-04-30T07:15:23.687Z,83.70
2019-04-30T07:17:53.054Z,80.00
2019-04-30T07:20:22.457Z,78.00
2019-04-30T07:25:22.906Z,70.70
2019-04-30T07:27:52.233Z,68.00
2019-04-30T07:30:21.609Z,64.50
2019-04-30T07:32:50.929Z,60.10
2019-04-30T07:35:20.224Z,56.60
2019-04-30T07:37:49.935Z,52.70
2019-04-30T07:40:19.435Z,53.00
2019-04-30T07:42:49.378Z,51.90
2019-04-30T07:45:19.454Z,49.50
2019-04-30T07:47:49.577Z,49.60
2019-04-30T07:50:21.557Z,47.10
2019-04-30T07:53:01.787Z,46.60
2019-04-30T07:55:21.037Z,46.20
2019-04-30T07:57:50.810Z,44.70
2019-04-30T08:00:20.358Z,43.50
2019-04-30T08:02:59.850Z,43.50
2019-04-30T08:05:33.742Z,43.80
2019-04-30T08:08:17.704Z,41.50
2019-04-30T08:09:38.381Z,74.20
2019-04-30T08:10:34.210Z,41.60
2019-04-30T08:13:10.310Z,41.00
2019-04-30T08:15:34.472Z,40.60
2019-04-30T08:18:05.901Z,39.20
2019-04-30T08:20:34.891Z,39.40
2019-04-30T08:23:14.066Z,38.70
2019-04-30T08:25:35.251Z,37.90
2019-04-30T08:28:04.543Z,36.90
2019-04-30T08:30:33.938Z,36.20
2019-04-30T08:33:03.310Z,34.30
2019-04-30T08:35:32.662Z,34.80
2019-04-30T08:38:02.974Z,33.80
2019-04-30T08:40:32.285Z,34.60
2019-04-30T08:43:01.678Z,34.30
2019-04-30T08:45:34.421Z,32.80
2019-04-30T08:48:02.033Z,31.80
2019-04-30T08:50:31.436Z,32.00
2019-04-30T08:53:01.096Z,32.30
2019-04-30T08:55:30.661Z,31.70
2019-04-30T08:58:09.641Z,31.30
2019-04-30T09:00:31.215Z,32.30
2019-04-30T09:03:00.557Z,31.20
2019-04-30T09:05:49.921Z,31.20
2019-04-30T09:08:19.535Z,30.30
2019-04-30T09:10:49.116Z,30.00
2019-04-30T09:13:19.164Z,30.10
2019-04-30T09:15:49.251Z,30.90
2019-04-30T09:18:19.147Z,30.70
2019-04-30T09:20:49.510Z,29.70
2019-04-30T09:23:19.622Z,29.50
2019-04-30T09:25:49.720Z,29.90
2019-04-30T09:28:19.927Z,29.70
2019-04-30T09:30:50.115Z,29.40
2019-04-30T09:33:19.573Z,28.80
2019-04-30T09:35:49.651Z,28.60
2019-04-30T09:38:19.676Z,28.70
2019-04-30T09:40:50.759Z,28.40
2019-04-30T09:43:22.956Z,27.90
2019-04-30T09:45:52.372Z,28.00
2019-04-30T09:48:22.587Z,28.50
2019-04-30T09:51:00.266Z,28.50
2019-04-30T09:53:42.027Z,28.90
2019-04-30T09:56:19.359Z,28.20
2019-04-30T09:58:56.574Z,27.90
2019-04-30T10:01:34.698Z,27.30
2019-04-30T10:04:10.226Z,27.30
2019-04-30T10:06:52.334Z,27.30
2019-04-30T10:09:29.332Z,27.10
2019-04-30T10:12:16.339Z,27.80
2019-04-30T10:14:49.736Z,27.40
2019-04-30T10:17:38.701Z,28.10
2019-04-30T10:20:28.031Z,28.60
2019-04-30T10:22:59.549Z,27.80
2019-04-30T10:25:28.301Z,28.10
2019-04-30T10:27:59.635Z,28.60
2019-04-30T10:30:34.903Z,28.40
2019-04-30T10:33:04.350Z,28.50
2019-04-30T10:35:34.034Z,28.30
2019-04-30T10:38:03.534Z,28.30
2019-04-30T10:40:32.791Z,28.20
2019-04-30T10:43:02.074Z,27.70
2019-04-30T10:45:31.646Z,27.10
2019-04-30T10:48:00.999Z,27.50
2019-04-30T10:50:30.600Z,27.40
2019-04-30T10:52:59.920Z,27.80
2019-04-30T10:55:31.140Z,27.00
2019-04-30T10:58:00.212Z,26.60
2019-04-30T11:00:40.179Z,26.70
2019-04-30T11:03:19.577Z,26.80
2019-04-30T11:05:41.386Z,26.60
2019-04-30T11:08:10.793Z,26.70
2019-04-30T11:10:40.189Z,26.10
2019-04-30T11:13:09.514Z,25.20
2019-04-30T11:15:39.470Z,25.00
2019-04-30T11:18:09.038Z,25.90
2019-04-30T11:20:39.744Z,25.90
2019-04-30T11:23:14.600Z,26.30
2019-04-30T11:25:41.552Z,26.30
2019-04-30T11:28:11.896Z,26.40
2019-04-30T11:30:41.684Z,25.90
2019-04-30T11:33:11.202Z,25.80
2019-04-30T11:35:40.619Z,25.70
2019-04-30T11:38:10.008Z,26.00
2019-04-30T11:40:40.028Z,26.30
2019-04-30T11:43:09.521Z,26.40
2019-04-30T11:46:08.686Z,26.20
2019-04-30T11:48:38.742Z,26.20
2019-04-30T11:51:09.461Z,26.40
2019-04-30T11:53:39.031Z,26.60
2019-04-30T11:56:08.391Z,26.30
2019-04-30T11:58:38.935Z,25.90
2019-04-30T12:01:12.640Z,26.60
2019-04-30T12:03:41.969Z,26.50
2019-04-30T12:06:11.303Z,27.20
2019-04-30T12:08:59.823Z,27.50
2019-04-30T12:11:34.051Z,27.90
2019-04-30T12:14:03.423Z,28.30
2019-04-30T12:16:33.767Z,28.80
2019-04-30T12:19:03.203Z,28.90
2019-04-30T12:21:32.808Z,29.60
2019-04-30T12:24:02.171Z,29.80
2019-04-30T12:26:31.424Z,30.20
2019-04-30T12:29:00.752Z,30.50
2019-04-30T12:31:30.069Z,31.10
2019-04-30T12:33:59.357Z,31.20
2019-04-30T12:36:28.980Z,31.30
2019-04-30T12:38:58.460Z,31.50
2019-04-30T12:41:27.850Z,31.70
2019-04-30T12:43:57.199Z,32.30
2019-04-30T12:46:28.777Z,33.10
2019-04-30T12:49:15.580Z,33.50
2019-04-30T12:52:01.696Z,34.00
2019-04-30T12:54:36.431Z,34.20
2019-04-30T12:57:24.784Z,34.40
2019-04-30T12:59:54.102Z,34.70
2019-04-30T13:02:23.602Z,34.90
2019-04-30T13:04:52.986Z,35.00
2019-04-30T13:07:23.004Z,35.30
2019-04-30T13:09:53.249Z,34.60
2019-04-30T13:12:23.376Z,34.30
2019-04-30T13:14:54.800Z,34.90
2019-04-30T13:17:24.502Z,34.10
2019-04-30T13:19:53.880Z,34.30
2019-04-30T13:22:24.327Z,33.90
2019-04-30T13:24:53.776Z,33.80
2019-04-30T13:27:23.219Z,33.90
2019-04-30T13:30:08.278Z,33.80
2019-04-30T13:32:44.232Z,32.90
2019-04-30T13:35:13.564Z,32.80
2019-04-30T13:37:49.930Z,33.60
2019-04-30T13:40:48.949Z,34.40
2019-04-30T13:43:20.374Z,34.80
2019-04-30T13:45:51.820Z,35.20
2019-04-30T13:48:21.032Z,35.00
2019-04-30T13:50:50.426Z,34.40
2019-04-30T13:53:19.776Z,34.30
2019-04-30T13:55:49.105Z,33.70
2019-04-30T13:58:18.432Z,33.80
2019-04-30T14:00:49.417Z,33.60
2019-04-30T14:03:25.955Z,34.10
2019-04-30T14:05:55.319Z,34.10
2019-04-30T14:08:32.679Z,34.80
2019-04-30T14:11:02.033Z,35.40
2019-04-30T14:13:31.363Z,35.80
2019-04-30T14:16:00.798Z,36.20
2019-04-30T14:18:33.838Z,35.80
2019-04-30T14:21:01.404Z,35.10
2019-04-30T14:23:31.631Z,35.00
2019-04-30T14:26:01.279Z,35.70
2019-04-30T14:28:30.737Z,35.20
2019-04-30T14:31:00.138Z,35.00
2019-04-30T14:33:29.574Z,34.90
2019-04-30T14:36:00.747Z,35.20
2019-04-30T14:38:30.345Z,35.00
2019-04-30T14:41:01.471Z,35.10
2019-04-30T14:43:51.139Z,35.20
2019-04-30T14:46:40.045Z,35.40
2019-04-30T14:49:28.435Z,35.00
2019-04-30T14:51:59.593Z,35.00
2019-04-30T14:54:39.014Z,35.10
2019-04-30T14:57:16.497Z,35.40
2019-04-30T15:00:08.787Z,35.30
2019-04-30T15:02:42.124Z,35.50
2019-04-30T15:05:11.727Z,35.70
2019-04-30T15:07:41.055Z,36.10
2019-04-30T15:10:10.539Z,36.10
2019-04-30T15:12:39.981Z,36.30
2019-04-30T15:15:09.390Z,36.40
2019-04-30T15:17:39.238Z,36.60
2019-04-30T15:20:10.208Z,36.60
2019-04-30T15:22:42.110Z,37.00
2019-04-30T15:25:11.672Z,36.90
2019-04-30T15:27:45.267Z,38.00
2019-04-30T15:30:21.722Z,37.70
2019-04-30T15:32:54.261Z,38.40
2019-04-30T15:35:31.773Z,38.30
2019-04-30T15:38:05.101Z,39.20
2019-04-30T15:40:59.778Z,40.10
2019-04-30T15:43:44.644Z,40.80
2019-04-30T15:46:14.641Z,41.50
2019-04-30T15:48:44.007Z,41.80
2019-04-30T15:51:15.435Z,42.20
2019-04-30T15:53:44.385Z,42.70
2019-04-30T15:56:13.605Z,43.20
2019-04-30T15:58:44.594Z,44.00
2019-04-30T16:01:14.270Z,44.40
2019-04-30T16:03:45.187Z,44.80
2019-04-30T16:06:14.563Z,45.60
2019-04-30T16:08:53.416Z,45.90
2019-04-30T16:11:35.024Z,46.70
2019-04-30T16:14:12.824Z,47.10
2019-04-30T16:16:45.068Z,47.70
2019-04-30T16:19:14.577Z,47.90
2019-04-30T16:21:43.933Z,48.10
2019-04-30T16:24:13.508Z,48.20
2019-04-30T16:26:49.623Z,48.30
2019-04-30T16:29:13.859Z,48.70
2019-04-30T16:31:43.403Z,49.00
2019-04-30T16:34:12.735Z,49.50
2019-04-30T16:36:42.119Z,49.60
2019-04-30T16:39:11.371Z,49.70
2019-04-30T16:41:40.979Z,49.80
2019-04-30T16:44:10.231Z,49.60
2019-04-30T16:46:39.594Z,49.60
2019-04-30T16:49:10.521Z,49.70
2019-04-30T16:51:39.857Z,49.40
2019-04-30T16:54:09.185Z,49.60
2019-04-30T16:56:38.796Z,49.50
2019-04-30T16:59:10.130Z,49.60
2019-04-30T17:01:39.477Z,49.80
2019-04-30T17:04:16.712Z,49.70
2019-04-30T17:06:50.486Z,50.00
2019-04-30T17:09:36.259Z,50.60
2019-04-30T17:12:20.515Z,50.80
2019-04-30T17:15:09.368Z,51.10
2019-04-30T17:17:39.601Z,51.20
2019-04-30T17:20:09.274Z,51.30
2019-04-30T17:22:39.494Z,51.30
2019-04-30T17:25:08.923Z,51.40
2019-04-30T17:27:39.243Z,51.60
2019-04-30T17:30:11.093Z,51.90
2019-04-30T17:32:40.630Z,52.00
2019-04-30T17:35:11.361Z,52.20
2019-04-30T17:37:40.859Z,52.40
2019-04-30T17:40:10.790Z,52.60
2019-04-30T17:42:40.156Z,53.00
2019-04-30T17:45:10.859Z,53.20
2019-04-30T17:47:40.269Z,53.30
2019-04-30T17:50:09.955Z,53.70
2019-04-30T17:52:39.361Z,53.80
2019-04-30T17:55:09.732Z,53.90
2019-04-30T17:57:40.258Z,54.20
2019-04-30T18:00:18.768Z,54.30
2019-04-30T18:02:43.039Z,54.50
2019-04-30T18:05:12.511Z,54.70
2019-04-30T18:07:41.875Z,54.90
2019-04-30T18:10:12.965Z,55.20
2019-04-30T18:12:42.245Z,55.30
2019-04-30T18:15:16.557Z,55.40
2019-04-30T18:17:50.445Z,55.60
2019-04-30T18:20:44.678Z,55.60
2019-04-30T18:23:35.850Z,55.90
2019-04-30T18:26:09.860Z,56.00
2019-04-30T18:28:39.242Z,56.30
2019-04-30T18:31:08.891Z,56.60
2019-04-30T18:33:38.341Z,56.60
2019-04-30T18:36:09.485Z,56.80
2019-04-30T18:38:39.253Z,57.20
2019-04-30T18:41:09.474Z,57.20
2019-04-30T18:43:40.518Z,57.40
2019-04-30T18:46:10.873Z,57.70
2019-04-30T18:48:40.406Z,57.50
2019-04-30T18:51:29.895Z,57.70
2019-04-30T18:53:40.752Z,57.70
2019-04-30T18:56:14.526Z,57.80
2019-04-30T18:58:43.190Z,58.00
2019-04-30T19:01:12.172Z,58.10
2019-04-30T19:03:41.564Z,58.40
2019-04-30T19:06:23.045Z,58.50
2019-04-30T19:08:53.653Z,58.90
2019-04-30T19:11:31.407Z,58.90
2019-04-30T19:14:24.666Z,59.10
2019-04-30T19:17:25.362Z,59.50
2019-04-30T19:20:22.638Z,59.60
2019-04-30T19:22:51.961Z,59.80
2019-04-30T19:25:21.337Z,60.00
2019-04-30T19:27:50.544Z,60.30
2019-04-30T19:30:20.553Z,61.30
2019-04-30T19:32:49.859Z,60.90
2019-04-30T19:35:19.103Z,61.10
2019-04-30T19:37:48.750Z,61.70
2019-04-30T19:40:19.019Z,62.30
2019-04-30T19:42:50.830Z,63.50
2019-04-30T19:45:19.438Z,64.50
2019-04-30T19:47:49.038Z,65.50
2019-04-30T19:50:19.241Z,66.90
2019-04-30T19:52:48.644Z,69.30
2019-04-30T19:55:20.431Z,69.90
2019-04-30T19:57:51.036Z,71.00
2019-04-30T20:00:20.047Z,72.50
2019-04-30T20:02:49.356Z,73.20
2019-04-30T20:05:19.412Z,74.20
2019-04-30T20:07:49.349Z,75.10
2019-04-30T20:10:19.585Z,76.40
2019-04-30T20:12:49.712Z,77.60
2019-04-30T20:15:23.413Z,78.80
2019-04-30T20:17:50.350Z,78.80
2019-04-30T20:20:19.693Z,80.00
2019-04-30T20:22:51.771Z,80.90
2019-04-30T20:25:19.984Z,82.30
2019-04-30T20:27:49.594Z,83.10
2019-04-30T20:30:19.579Z,83.50
2019-04-30T20:32:49.060Z,83.90
2019-04-30T20:35:19.886Z,84.30
2019-04-30T20:38:07.096Z,85.40
2019-04-30T20:40:43.634Z,85.90
2019-04-30T20:43:08.630Z,86.20
2019-04-30T20:45:38.129Z,87.00
2019-04-30T20:48:08.963Z,87.70
2019-04-30T20:50:38.429Z,88.20
2019-04-30T20:53:08.843Z,88.90
2019-04-30T20:55:40.576Z,89.50
2019-04-30T20:58:09.573Z,90.00
2019-04-30T21:00:38.983Z,90.20
2019-04-30T21:03:09.698Z,90.50
2019-04-30T21:05:39.190Z,90.90
2019-04-30T21:08:08.570Z,91.00
2019-04-30T21:10:39.549Z,91.50
2019-04-30T21:13:10.948Z,91.70
2019-04-30T21:15:39.897Z,92.10
2019-04-30T21:18:09.667Z,92.40
2019-04-30T21:20:38.947Z,92.80
2019-04-30T21:23:09.446Z,93.10
2019-04-30T21:25:38.847Z,93.40
2019-04-30T21:28:09.739Z,93.70
2019-04-30T21:30:39.188Z,93.90
2019-04-30T21:33:17.015Z,94.30
2019-04-30T21:35:50.781Z,94.50
2019-04-30T21:38:20.148Z,94.60
2019-04-30T21:40:49.456Z,94.90
2019-04-30T21:43:18.720Z,95.00
2019-04-30T21:45:49.398Z,95.40
2019-04-30T21:48:19.202Z,95.30
2019-04-30T21:50:49.740Z,95.40
2019-04-30T21:53:19.598Z,95.50
2019-04-30T21:55:49.726Z,95.70
2019-04-30T21:58:20.350Z,95.90
2019-04-30T22:01:11.079Z,96.00
2019-04-30T22:03:41.023Z,96.20
2019-04-30T22:06:10.690Z,96.20
2019-04-30T22:08:40.065Z,96.50
2019-04-30T22:11:09.816Z,96.70
2019-04-30T22:13:40.055Z,96.90
2019-04-30T22:16:10.526Z,97.20
2019-04-30T22:18:39.865Z,97.30
2019-04-30T22:21:09.368Z,97.60
2019-04-30T22:23:38.759Z,97.80
2019-04-30T22:26:08.123Z,98.00
2019-04-30T22:28:39.143Z,98.30
2019-04-30T22:31:08.665Z,98.50
2019-04-30T22:33:39.186Z,98.60
2019-04-30T22:36:32.137Z,98.90
2019-04-30T22:39:16.110Z,99.10
2019-04-30T22:41:45.449Z,99.30
2019-04-30T22:44:14.776Z,99.50
2019-04-30T22:46:44.178Z,99.70
2019-04-30T22:49:13.605Z,99.90
2019-04-30T22:51:43.021Z,99.90
2019-04-30T22:54:12.350Z,99.90
2019-04-30T22:56:41.778Z,99.90
2019-04-30T22:59:11.100Z,99.90
2019-04-30T23:02:02.236Z,99.90
2019-04-30T23:04:38.020Z,99.90
2019-04-30T23:07:07.580Z,99.90
2019-04-30T23:09:36.877Z,99.90
2019-04-30T23:12:06.552Z,99.90
2019-04-30T23:14:35.916Z,99.90
2019-04-30T23:17:05.465Z,99.90
2019-04-30T23:19:34.884Z,99.90
2019-04-30T23:22:04.528Z,99.90
2019-04-30T23:24:33.935Z,99.90
2019-04-30T23:27:03.373Z,99.90
2019-04-30T23:29:32.756Z,99.90
2019-04-30T23:32:02.181Z,99.90
2019-04-30T23:34:31.600Z,99.90
2019-04-30T23:37:00.987Z,99.90
2019-04-30T23:39:30.383Z,99.90
2019-04-30T23:41:59.761Z,99.90
2019-04-30T23:44:29.163Z,99.90
2019-04-30T23:46:58.552Z,99.90
2019-04-30T23:49:27.964Z,99.90
2019-04-30T23:51:57.307Z,99.90
2019-04-30T23:54:26.750Z,99.90
2019-04-30T23:56:56.035Z,99.90
2019-04-30T23:59:25.407Z,99.90
